Time;durP1;ratioP1;P1;durP2;ratioP2;P2;SDS_P1;SDS_P2;PMS_P1;PMS_P2;Temp;Humidity;BMP_temperature;BMP_pressure;BME280_temperature;BME280_humidity;BME280_pressure;Samples;Min_cycle;Max_cycle;Signal;HPM_P1;HPM_P2
2024/03/21 00:02:21;;;;;;;0.55;0.55;;;6.80;1.00;;;;;;5015242;28;20050;-73
2024/03/21 00:04:48;;;;;;;0.30;0.30;;;6.80;1.00;;;;;;5018698;28;20037;-73
2024/03/21 00:07:14;;;;;;;0.20;0.20;;;6.70;1.00;;;;;;5006901;28;20030;-73
2024/03/21 00:09:41;;;;;;;2.40;1.45;;;6.70;1.00;;;;;;5014759;28;20057;-73
2024/03/21 00:12:07;;;;;;;0.20;0.20;;;6.60;1.00;;;;;;5017553;28;20046;-73
2024/03/21 00:14:35;;;;;;;0.10;0.10;;;6.40;1.00;;;;;;5001831;28;20471;-73
2024/03/21 00:17:01;;;;;;;0.40;0.40;;;6.30;1.00;;;;;;5023083;28;20156;-73
2024/03/21 00:19:28;;;;;;;0.57;0.57;;;6.10;1.00;;;;;;5014673;28;20037;-73
2024/03/21 00:21:55;;;;;;;1.45;0.68;;;6.00;1.00;;;;;;5008929;28;20042;-73
2024/03/21 00:24:21;;;;;;;0.82;0.82;;;6.10;1.00;;;;;;5011113;28;20399;-73
2024/03/21 00:26:49;;;;;;;0.63;0.40;;;6.20;1.00;;;;;;5014395;28;20030;-73
2024/03/21 00:29:15;;;;;;;0.75;0.75;;;6.30;1.00;;;;;;5013922;28;20037;-73
2024/03/21 00:31:41;;;;;;;1.08;0.85;;;6.20;1.00;;;;;;5011848;28;20086;-73
2024/03/21 00:34:10;;;;;;;0.45;0.45;;;6.20;1.00;;;;;;5005921;28;20452;-73
2024/03/21 00:36:36;;;;;;;0.22;0.22;;;6.20;1.00;;;;;;5006937;28;20023;-73
2024/03/21 00:39:02;;;;;;;0.68;0.50;;;6.10;1.00;;;;;;5002304;28;20029;-73
2024/03/21 00:41:29;;;;;;;1.35;1.25;;;5.90;1.00;;;;;;5014208;28;20459;-73
2024/03/21 00:43:55;;;;;;;0.95;0.90;;;5.90;1.00;;;;;;5013897;28;20045;-74
2024/03/21 00:46:23;;;;;;;0.10;0.10;;;6.00;14.50;;;;;;5014262;28;20121;-73
2024/03/21 00:48:49;;;;;;;0.82;0.80;;;6.00;9.00;;;;;;5010000;28;20151;-73
2024/03/21 00:51:15;;;;;;;1.85;1.02;;;5.90;9.20;;;;;;5007590;28;20049;-73
2024/03/21 00:53:42;;;;;;;0.50;0.50;;;5.90;21.20;;;;;;5005574;28;20355;-73
2024/03/21 00:56:08;;;;;;;0.63;0.50;;;5.90;30.80;;;;;;5011538;28;20034;-73
2024/03/21 00:58:34;;;;;;;0.60;0.57;;;6.00;43.80;;;;;;4995111;28;20034;-73
2024/03/21 01:01:00;;;;;;;0.10;0.10;;;6.00;47.80;;;;;;5010957;28;20041;-73
2024/03/21 01:03:27;;;;;;;0.63;0.63;;;6.10;41.60;;;;;;5008349;28;20042;-73
2024/03/21 01:05:56;;;;;;;0.22;0.22;;;6.00;31.00;;;;;;5009456;28;20026;-73
2024/03/21 01:08:23;;;;;;;0.20;0.20;;;6.10;38.40;;;;;;5002740;28;20495;-73
2024/03/21 01:10:51;;;;;;;0.75;0.55;;;6.10;27.70;;;;;;5010927;28;20045;-73
2024/03/21 01:13:20;;;;;;;1.65;1.42;;;6.20;24.00;;;;;;5012733;28;20058;-73
2024/03/21 01:15:47;;;;;;;0.30;0.30;;;6.20;3.90;;;;;;5011942;28;20030;-73
2024/03/21 01:18:13;;;;;;;0.35;0.35;;;6.20;1.00;;;;;;5010626;28;20041;-73
2024/03/21 01:20:41;;;;;;;0.63;0.63;;;6.10;1.00;;;;;;5003668;28;20034;-74
2024/03/21 01:23:08;;;;;;;0.28;0.28;;;6.10;1.00;;;;;;4986280;28;20058;-73
2024/03/21 01:25:34;;;;;;;3.00;1.20;;;6.10;1.00;;;;;;5011359;28;20046;-73
2024/03/21 01:28:04;;;;;;;0.73;0.73;;;6.10;1.00;;;;;;4995686;28;20494;-73
2024/03/21 01:30:33;;;;;;;0.20;0.20;;;6.10;1.00;;;;;;5013054;28;20034;-73
2024/03/21 01:33:00;;;;;;;2.00;0.95;;;6.10;1.00;;;;;;5011406;28;20443;-73
2024/03/21 01:35:27;;;;;;;2.50;0.73;;;6.20;1.00;;;;;;5006450;28;20038;-73
2024/03/21 01:37:55;;;;;;;0.85;0.70;;;6.10;1.00;;;;;;5003710;28;20373;-74
2024/03/21 01:40:21;;;;;;;2.47;1.30;;;6.10;1.00;;;;;;5006841;28;20030;-74
2024/03/21 01:42:49;;;;;;;0.50;0.50;;;6.00;1.00;;;;;;4995342;28;20045;-73
2024/03/21 01:45:17;;;;;;;1.05;1.05;;;6.00;1.00;;;;;;5011038;28;20038;-74
2024/03/21 01:47:43;;;;;;;1.35;0.98;;;6.00;1.00;;;;;;5009845;28;20384;-73
2024/03/21 01:50:11;;;;;;;0.88;0.82;;;5.80;1.00;;;;;;5008833;28;20383;-73
2024/03/21 01:52:41;;;;;;;0.32;0.32;;;5.80;5.60;;;;;;5008190;28;20045;-73
2024/03/21 01:55:08;;;;;;;2.28;1.83;;;5.70;14.90;;;;;;5011823;28;20030;-73
2024/03/21 01:57:39;;;;;;;0.63;0.63;;;5.70;27.80;;;;;;5012359;28;20041;-74
2024/03/21 02:00:06;;;;;;;0.47;0.45;;;5.80;50.30;;;;;;5010081;28;20041;-73
2024/03/21 02:02:34;;;;;;;1.63;1.52;;;5.90;62.20;;;;;;5010525;28;20042;-73
2024/03/21 02:05:02;;;;;;;0.30;0.30;;;6.00;48.60;;;;;;5004971;28;20052;-73
2024/03/21 02:07:28;;;;;;;1.58;1.08;;;6.00;38.00;;;;;;5003873;28;20440;-73
2024/03/21 02:09:54;;;;;;;0.20;0.20;;;6.00;27.10;;;;;;5005900;28;20026;-73
2024/03/21 02:12:53;;;;;;;0.40;0.40;;;6.00;14.80;;;;;;5012445;28;20392;-73
2024/03/21 02:15:20;;;;;;;0.68;0.47;;;6.00;8.70;;;;;;4969612;28;20053;-73
2024/03/21 02:17:46;;;;;;;1.13;1.00;;;6.00;11.40;;;;;;4989281;28;20042;-73
2024/03/21 02:20:12;;;;;;;0.93;0.93;;;6.00;2.90;;;;;;5007745;28;20038;-73
2024/03/21 02:22:38;;;;;;;0.57;0.57;;;6.00;1.00;;;;;;5006176;28;20057;-74
2024/03/21 02:25:09;;;;;;;0.20;0.20;;;6.00;2.20;;;;;;5003349;28;20037;-73
2024/03/21 02:27:37;;;;;;;0.30;0.30;;;6.00;2.30;;;;;;5009622;28;20053;-73
2024/03/21 02:30:04;;;;;;;0.60;0.60;;;6.00;1.00;;;;;;5008807;28;20368;-73
2024/03/21 02:32:30;;;;;;;1.55;1.45;;;6.00;1.60;;;;;;5010119;28;20046;-73
2024/03/21 02:34:56;;;;;;;0.10;0.10;;;6.00;1.00;;;;;;5011505;28;20037;-73
2024/03/21 02:37:23;;;;;;;0.43;0.43;;;6.00;1.00;;;;;;5003897;28;20044;-73
2024/03/21 02:39:50;;;;;;;0.20;0.20;;;6.10;1.00;;;;;;5008673;28;20106;-73
2024/03/21 02:42:21;;;;;;;0.15;0.15;;;6.10;1.00;;;;;;5016160;28;20042;-73
2024/03/21 02:44:48;;;;;;;0.45;0.45;;;6.00;1.00;;;;;;4999339;28;20045;-72
2024/03/21 02:47:16;;;;;;;0.65;0.65;;;6.00;11.20;;;;;;5016089;28;20041;-73
2024/03/21 02:49:42;;;;;;;3.92;1.85;;;5.90;33.80;;;;;;5009537;28;20029;-72
2024/03/21 02:52:09;;;;;;;0.35;0.35;;;5.90;40.20;;;;;;5007854;28;20042;-73
2024/03/21 02:54:35;;;;;;;1.17;0.65;;;5.80;52.40;;;;;;5007569;28;20053;-73
2024/03/21 02:57:10;;;;;;;1.98;1.38;;;5.80;75.10;;;;;;5015988;28;20041;-73
2024/03/21 02:59:37;;;;;;;0.50;0.30;;;5.70;99.90;;;;;;4997089;28;20033;-72
2024/03/21 03:02:03;;;;;;;0.55;0.55;;;5.80;99.90;;;;;;5013654;28;20430;-72
2024/03/21 03:04:30;;;;;;;0.40;0.40;;;5.80;99.90;;;;;;5012115;28;20049;-73
2024/03/21 03:06:56;;;;;;;1.27;0.93;;;5.90;99.90;;;;;;5008560;28;20030;-73
2024/03/21 03:09:23;;;;;;;0.43;0.43;;;5.90;99.90;;;;;;5004453;28;20459;-73
2024/03/21 03:11:49;;;;;;;2.38;1.38;;;6.00;99.90;;;;;;4994493;28;20050;-72
2024/03/21 03:14:16;;;;;;;0.30;0.30;;;6.00;99.90;;;;;;4995559;28;20387;-72
2024/03/21 03:16:42;;;;;;;0.90;0.90;;;6.00;99.90;;;;;;4994979;28;20030;-73
2024/03/21 03:19:08;;;;;;;1.40;1.15;;;6.00;99.90;;;;;;4989918;28;20038;-73
2024/03/21 03:21:34;;;;;;;1.80;1.65;;;6.00;99.90;;;;;;4994192;28;20054;-73
2024/03/21 03:24:01;;;;;;;0.38;0.38;;;6.00;99.90;;;;;;4983338;28;20484;-73
2024/03/21 03:26:27;;;;;;;1.65;1.55;;;5.90;99.90;;;;;;4995897;28;20042;-73
2024/03/21 03:28:53;;;;;;;0.68;0.60;;;5.90;99.90;;;;;;4993450;28;20030;-73
2024/03/21 03:31:19;;;;;;;1.08;0.85;;;5.80;99.90;;;;;;4992449;28;20387;-73
2024/03/21 03:36:31;;;;;;;0.60;0.60;;;5.50;99.90;;;;;;4989568;28;20035;-73
2024/03/21 03:38:57;;;;;;;0.68;0.68;;;5.40;99.90;;;;;;4983741;28;20388;-73
2024/03/21 03:41:23;;;;;;;3.92;1.05;;;5.40;99.90;;;;;;4995454;28;20038;-73
2024/03/21 03:43:50;;;;;;;11.07;1.77;;;5.30;99.90;;;;;;4991985;28;20068;-73
2024/03/21 03:46:16;;;;;;;0.80;0.80;;;5.30;99.90;;;;;;4995445;28;20428;-72
2024/03/21 03:48:42;;;;;;;0.75;0.73;;;5.20;99.90;;;;;;4997039;28;20039;-73
2024/03/21 03:51:08;;;;;;;4.25;1.70;;;5.20;99.90;;;;;;4985177;28;20047;-73
2024/03/21 03:53:34;;;;;;;0.75;0.68;;;5.10;99.90;;;;;;4985172;28;20037;-73
2024/03/21 03:56:01;;;;;;;1.35;1.30;;;5.00;99.90;;;;;;4991558;28;20487;-73
2024/03/21 03:58:28;;;;;;;0.50;0.50;;;5.10;99.90;;;;;;4993450;28;20034;-73
2024/03/21 04:01:00;;;;;;;0.17;0.17;;;5.10;99.90;;;;;;4991835;28;20042;-73
2024/03/21 04:03:28;;;;;;;0.57;0.57;;;5.00;99.90;;;;;;4990619;28;20057;-73
2024/03/21 04:05:58;;;;;;;0.20;0.20;;;4.90;99.90;;;;;;4991160;28;20354;-72
2024/03/21 04:08:24;;;;;;;0.77;0.77;;;5.00;1.00;;;;;;4987187;28;20034;-73
2024/03/21 04:10:51;;;;;;;1.13;0.80;;;5.00;1.00;;;;;;4989496;28;20125;-73
2024/03/21 04:13:17;;;;;;;0.63;0.63;;;4.90;1.00;;;;;;4983484;28;20058;-73
2024/03/21 04:15:44;;;;;;;2.45;1.70;;;4.90;1.00;;;;;;4991864;28;20038;-72
2024/03/21 04:18:10;;;;;;;2.20;1.42;;;4.90;1.00;;;;;;4990626;28;20027;-73
2024/03/21 04:20:36;;;;;;;0.82;0.82;;;4.90;1.00;;;;;;4989311;28;20035;-73
2024/03/21 04:23:02;;;;;;;0.73;0.73;;;5.00;1.00;;;;;;4982901;28;20055;-73
2024/03/21 04:25:29;;;;;;;2.08;1.10;;;5.00;1.00;;;;;;4991157;28;20039;-73
2024/03/21 04:27:56;;;;;;;1.00;1.00;;;4.90;1.00;;;;;;4984149;28;20038;-73
2024/03/21 04:30:22;;;;;;;1.70;1.30;;;4.90;1.00;;;;;;4994255;28;20034;-72
2024/03/21 04:32:48;;;;;;;0.80;0.60;;;4.70;1.00;;;;;;4990718;28;20118;-73
2024/03/21 04:35:14;;;;;;;1.08;1.08;;;4.70;1.00;;;;;;4989910;28;20046;-73
2024/03/21 04:37:40;;;;;;;0.32;0.32;;;4.60;1.00;;;;;;4986969;28;20475;-73
2024/03/21 04:40:07;;;;;;;2.72;1.63;;;4.60;1.00;;;;;;4986515;28;20364;-73
2024/03/21 04:42:33;;;;;;;1.50;1.40;;;4.50;1.00;;;;;;4994519;28;20045;-73
2024/03/21 04:44:59;;;;;;;0.68;0.68;;;4.60;1.00;;;;;;4991699;28;20042;-73
2024/03/21 04:47:25;;;;;;;0.38;0.38;;;4.70;1.00;;;;;;4991435;28;20039;-73
2024/03/21 04:49:54;;;;;;;4.03;0.77;;;4.80;1.00;;;;;;4988053;28;20022;-73
2024/03/21 04:52:21;;;;;;;0.22;0.22;;;4.80;1.00;;;;;;4984486;28;20047;-73
2024/03/21 04:54:51;;;;;;;0.43;0.43;;;4.80;1.00;;;;;;4982748;28;20475;-73
2024/03/21 04:57:17;;;;;;;0.63;0.63;;;4.70;1.00;;;;;;4993741;28;20037;-73
2024/03/21 04:59:43;;;;;;;0.60;0.60;;;4.80;1.00;;;;;;4993091;28;20031;-73
2024/03/21 05:02:09;;;;;;;1.55;0.52;;;4.80;1.00;;;;;;4991808;28;20027;-72
2024/03/21 05:04:36;;;;;;;0.95;0.95;;;4.70;1.00;;;;;;4988384;28;20043;-73
2024/03/21 05:07:03;;;;;;;0.30;0.30;;;4.80;99.90;;;;;;4989778;28;20038;-73
2024/03/21 05:09:29;;;;;;;0.32;0.32;;;4.90;99.90;;;;;;4992985;28;20034;-73
2024/03/21 05:11:55;;;;;;;2.30;1.85;;;4.80;99.90;;;;;;4988667;28;20058;-73
2024/03/21 05:14:22;;;;;;;15.50;1.27;;;4.80;99.90;;;;;;5006179;28;20030;-73
2024/03/21 05:16:48;;;;;;;2.03;1.48;;;4.80;99.90;;;;;;5004421;28;20035;-73
2024/03/21 05:19:15;;;;;;;0.93;0.93;;;4.80;1.00;;;;;;4996758;28;20034;-73
2024/03/21 05:21:41;;;;;;;0.28;0.28;;;4.90;1.00;;;;;;4987009;28;20026;-73
2024/03/21 05:24:07;;;;;;;2.38;1.67;;;5.00;1.00;;;;;;4986208;28;20046;-73
2024/03/21 05:26:33;;;;;;;2.05;0.70;;;5.10;1.00;;;;;;4985353;28;20033;-74
2024/03/21 05:29:00;;;;;;;0.75;0.63;;;5.10;99.90;;;;;;4976084;28;20047;-73
2024/03/21 05:31:26;;;;;;;0.47;0.47;;;5.20;99.90;;;;;;4981311;28;20037;-73
2024/03/21 05:33:54;;;;;;;1.25;1.17;;;5.30;99.90;;;;;;4984389;28;20041;-74
2024/03/21 05:36:21;;;;;;;0.68;0.65;;;5.30;99.90;;;;;;4980044;28;20026;-73
2024/03/21 05:38:47;;;;;;;0.77;0.65;;;5.30;99.90;;;;;;4980087;28;20038;-73
2024/03/21 05:41:14;;;;;;;0.52;0.40;;;5.40;99.90;;;;;;4989828;28;20348;-73
2024/03/21 05:43:41;;;;;;;0.40;0.40;;;5.40;99.90;;;;;;4992512;28;20045;-73
2024/03/21 05:46:07;;;;;;;0.35;0.35;;;5.50;99.90;;;;;;4990082;28;20045;-73
2024/03/21 05:48:34;;;;;;;0.30;0.30;;;5.40;99.90;;;;;;4991389;28;20043;-73
2024/03/21 05:51:02;;;;;;;1.75;1.17;;;5.50;99.90;;;;;;4986481;28;20404;-73
2024/03/21 05:53:29;;;;;;;0.95;0.93;;;5.50;99.90;;;;;;4981965;28;20042;-73
2024/03/21 05:56:05;;;;;;;1.42;1.33;;;5.50;99.90;;;;;;4992150;28;20491;-73
2024/03/21 05:58:32;;;;;;;2.42;2.05;;;5.50;99.90;;;;;;4995114;28;20029;-73
2024/03/21 06:03:33;;;;;;;0.80;0.80;;;5.70;99.90;;;;;;4986683;28;20068;-73
2024/03/21 06:06:00;;;;;;;1.40;1.30;;;5.80;99.90;;;;;;4986566;28;20039;-73
2024/03/21 06:08:27;;;;;;;0.50;0.50;;;5.90;99.90;;;;;;4985179;28;20031;-73
2024/03/21 06:10:53;;;;;;;1.00;0.60;;;6.00;99.90;;;;;;4999291;28;20372;-73
2024/03/21 06:13:20;;;;;;;2.70;1.25;;;6.00;99.90;;;;;;5013557;28;20056;-73
2024/03/21 06:15:46;;;;;;;2.08;1.45;;;6.10;99.90;;;;;;5011617;28;20466;-73
2024/03/21 06:18:16;;;;;;;1.58;1.15;;;6.20;99.90;;;;;;5007351;28;20391;-73
2024/03/21 06:20:43;;;;;;;2.55;1.88;;;6.20;99.90;;;;;;5009696;28;20665;-73
2024/03/21 06:23:09;;;;;;;1.58;1.35;;;6.30;99.90;;;;;;5007760;28;20455;-73
2024/03/21 06:25:36;;;;;;;1.13;1.02;;;6.40;99.90;;;;;;5008635;28;20030;-73
2024/03/21 06:28:03;;;;;;;2.63;2.42;;;6.50;99.90;;;;;;5011079;28;20037;-73
2024/03/21 06:30:29;;;;;;;1.45;1.17;;;6.70;99.90;;;;;;5013364;28;20041;-74
2024/03/21 06:32:55;;;;;;;1.65;1.55;;;6.90;60.10;;;;;;4993748;28;20046;-74
2024/03/21 06:35:22;;;;;;;1.35;1.25;;;6.90;37.40;;;;;;5008094;28;20476;-74
2024/03/21 06:37:54;;;;;;;1.27;1.08;;;7.00;19.80;;;;;;5005776;28;20392;-73
2024/03/21 06:40:22;;;;;;;1.85;1.10;;;7.00;10.70;;;;;;5008790;28;20038;-74
2024/03/21 06:42:50;;;;;;;1.10;1.10;;;7.00;1.00;;;;;;5012556;28;20044;-74
2024/03/21 06:45:16;;;;;;;0.50;0.50;;;7.00;8.60;;;;;;5009825;28;20034;-74
2024/03/21 06:47:45;;;;;;;1.13;0.63;;;7.00;26.60;;;;;;5007028;28;20034;-74
2024/03/21 06:50:16;;;;;;;1.48;1.38;;;7.10;24.40;;;;;;5007116;28;20116;-74
2024/03/21 06:52:44;;;;;;;;;;;7.20;29.40;;;;;;5005300;28;20049;-74
2024/03/21 06:55:14;;;;;;;0.73;0.52;;;7.20;30.50;;;;;;5003967;28;19933;-74
2024/03/21 06:57:46;;;;;;;0.40;0.40;;;7.30;26.30;;;;;;5009948;28;20463;-73
2024/03/21 07:00:13;;;;;;;1.27;0.85;;;7.30;34.70;;;;;;5010642;28;20479;-74
2024/03/21 07:02:40;;;;;;;0.40;0.35;;;7.40;51.80;;;;;;5011320;28;20509;-74
2024/03/21 07:05:07;;;;;;;1.45;0.98;;;7.50;54.00;;;;;;5006078;28;20034;-74
2024/03/21 07:07:33;;;;;;;0.60;0.60;;;7.70;42.30;;;;;;5001117;28;20075;-74
2024/03/21 07:10:00;;;;;;;1.17;1.08;;;7.90;32.70;;;;;;4999063;28;20127;-74
2024/03/21 07:12:26;;;;;;;0.60;0.60;;;8.20;22.30;;;;;;5014338;28;20050;-74
2024/03/21 07:14:53;;;;;;;0.10;0.10;;;8.50;17.50;;;;;;4994848;28;20045;-74
2024/03/21 07:17:19;;;;;;;8.18;1.73;;;8.70;1.00;;;;;;4991987;28;20365;-74
2024/03/21 07:19:47;;;;;;;0.63;0.43;;;8.90;1.00;;;;;;5006221;28;20031;-74
2024/03/21 07:22:14;;;;;;;0.82;0.82;;;9.10;1.00;;;;;;5004806;28;20053;-74
2024/03/21 07:24:41;;;;;;;0.98;0.98;;;9.20;1.00;;;;;;5003818;28;20519;-74
2024/03/21 07:27:07;;;;;;;0.77;0.50;;;9.10;1.00;;;;;;5010483;28;20472;-75
2024/03/21 07:29:34;;;;;;;7.07;0.90;;;9.00;1.00;;;;;;5009536;28;20033;-74
2024/03/21 07:32:05;;;;;;;0.90;0.90;;;9.00;1.00;;;;;;5008267;28;20033;-74
2024/03/21 07:34:35;;;;;;;0.95;0.82;;;9.20;1.00;;;;;;5006691;28;20880;-73
2024/03/21 07:37:04;;;;;;;1.60;1.50;;;9.40;1.00;;;;;;5013234;28;20041;-74
2024/03/21 07:39:32;;;;;;;0.40;0.40;;;9.60;1.00;;;;;;5009385;28;20038;-73
2024/03/21 07:41:59;;;;;;;1.38;0.30;;;9.90;1.00;;;;;;5012225;28;20038;-73
2024/03/21 07:44:26;;;;;;;0.60;0.60;;;10.40;1.00;;;;;;5012657;28;20513;-74
2024/03/21 07:46:53;;;;;;;1.92;1.80;;;11.10;99.90;;;;;;4992495;28;20044;-75
2024/03/21 07:49:19;;;;;;;1.48;1.38;;;11.80;99.90;;;;;;5008068;28;20037;-75
2024/03/21 07:51:47;;;;;;;1.90;1.25;;;12.30;56.20;;;;;;4999500;28;20518;-75
2024/03/21 07:54:14;;;;;;;2.33;1.50;;;12.40;1.00;;;;;;5006654;28;20494;-75
2024/03/21 07:56:40;;;;;;;2.20;1.95;;;12.70;1.00;;;;;;5011482;28;20037;-75
2024/03/21 07:59:06;;;;;;;0.65;0.65;;;13.00;1.00;;;;;;5014933;28;20026;-75
2024/03/21 08:01:32;;;;;;;1.77;1.42;;;13.20;1.00;;;;;;5013018;28;20037;-74
2024/03/21 08:04:03;;;;;;;8.23;1.42;;;13.10;1.00;;;;;;5015088;28;20411;-75
2024/03/21 08:06:30;;;;;;;1.33;1.23;;;13.00;1.00;;;;;;5007970;28;20037;-75
2024/03/21 08:08:56;;;;;;;0.60;0.60;;;12.90;1.00;;;;;;5006139;28;20045;-75
2024/03/21 08:11:23;;;;;;;0.88;0.88;;;12.90;1.00;;;;;;5014543;28;20041;-75
2024/03/21 08:13:49;;;;;;;0.82;0.82;;;12.90;1.00;;;;;;5014046;28;20034;-75
2024/03/21 08:16:15;;;;;;;1.33;0.90;;;12.80;1.00;;;;;;5011886;28;20033;-75
2024/03/21 08:18:41;;;;;;;1.45;0.50;;;13.00;1.00;;;;;;5012337;28;20041;-75
2024/03/21 08:21:08;;;;;;;0.80;0.75;;;13.20;1.00;;;;;;5010853;28;20045;-75
2024/03/21 08:23:34;;;;;;;7.70;2.08;;;13.60;99.90;;;;;;5006679;28;20038;-75
2024/03/21 08:26:04;;;;;;;4.97;1.38;;;14.00;99.90;;;;;;5008480;28;20056;-75
2024/03/21 08:28:31;;;;;;;0.65;0.55;;;14.00;99.90;;;;;;5014572;28;20059;-75
2024/03/21 08:30:57;;;;;;;2.58;1.08;;;13.80;99.90;;;;;;5012916;28;20037;-75
2024/03/21 08:33:23;;;;;;;1.15;1.13;;;13.50;99.90;;;;;;5008847;28;20061;-75
2024/03/21 08:35:50;;;;;;;0.73;0.73;;;13.40;99.90;;;;;;5006929;28;20053;-75
2024/03/21 08:38:17;;;;;;;1.48;1.10;;;13.50;99.90;;;;;;5006142;28;20034;-75
2024/03/21 08:40:53;;;;;;;1.75;1.30;;;13.80;99.90;;;;;;5005701;28;20387;-75
2024/03/21 08:43:20;;;;;;;2.17;1.95;;;13.90;99.90;;;;;;5012288;28;20349;-75
2024/03/21 08:45:47;;;;;;;1.75;0.82;;;14.20;99.90;;;;;;5009867;28;20428;-75
2024/03/21 08:48:14;;;;;;;0.70;0.70;;;15.00;99.90;;;;;;5011567;28;20053;-75
2024/03/21 08:50:44;;;;;;;0.98;0.85;;;15.10;29.50;;;;;;5007014;28;20025;-76
2024/03/21 08:53:10;;;;;;;7.90;1.38;;;15.20;18.70;;;;;;5004967;28;20033;-75
2024/03/21 08:55:37;;;;;;;1.63;1.20;;;15.20;13.40;;;;;;5007345;28;20412;-74
2024/03/21 08:58:05;;;;;;;1.25;0.52;;;15.20;12.10;;;;;;5013627;28;20049;-74
2024/03/21 09:00:32;;;;;;;0.70;0.70;;;15.00;25.20;;;;;;5012443;28;20038;-76
2024/03/21 09:03:00;;;;;;;2.35;1.65;;;15.30;6.70;;;;;;5009204;28;20030;-74
2024/03/21 09:05:27;;;;;;;1.65;1.48;;;15.20;43.90;;;;;;5006581;28;20034;-74
2024/03/21 09:07:54;;;;;;;1.58;1.20;;;15.70;33.20;;;;;;5006211;28;20046;-75
2024/03/21 09:10:21;;;;;;;1.10;1.02;;;15.80;1.00;;;;;;5005609;28;20045;-75
2024/03/21 09:12:47;;;;;;;0.60;0.40;;;15.60;1.00;;;;;;5010414;28;20050;-74
2024/03/21 09:15:16;;;;;;;4.30;1.88;;;15.50;8.00;;;;;;5010867;28;21090;-75
2024/03/21 09:17:42;;;;;;;1.05;0.95;;;15.60;10.40;;;;;;5013090;28;20528;-75
2024/03/21 09:20:09;;;;;;;0.65;0.50;;;15.70;1.00;;;;;;5008484;28;20030;-75
2024/03/21 09:22:35;;;;;;;1.63;1.33;;;16.10;1.00;;;;;;5005109;28;20038;-76
2024/03/21 09:25:02;;;;;;;0.70;0.70;;;16.20;1.00;;;;;;5004438;28;20045;-74
2024/03/21 09:27:29;;;;;;;0.40;0.40;;;16.10;1.00;;;;;;5009762;28;20046;-75
2024/03/21 09:29:55;;;;;;;1.15;1.10;;;16.20;1.00;;;;;;5013174;28;20038;-75
2024/03/21 09:32:22;;;;;;;0.75;0.75;;;16.20;1.00;;;;;;5009511;28;20025;-75
2024/03/21 09:34:51;;;;;;;1.75;1.60;;;16.20;1.00;;;;;;5003417;28;20046;-76
2024/03/21 09:37:19;;;;;;;1.38;1.05;;;16.60;1.00;;;;;;5004666;28;20046;-76
2024/03/21 09:39:45;;;;;;;3.65;0.95;;;16.80;1.00;;;;;;5001861;28;20038;-76
2024/03/21 09:42:19;;;;;;;1.75;1.45;;;16.60;1.00;;;;;;5013268;28;20037;-76
2024/03/21 09:44:48;;;;;;;1.95;1.80;;;16.60;1.00;;;;;;5010627;28;20045;-75
2024/03/21 09:47:23;;;;;;;2.72;2.53;;;16.20;1.00;;;;;;5005393;28;20041;-75
2024/03/21 09:49:50;;;;;;;2.47;2.17;;;16.30;1.00;;;;;;4986775;28;20042;-74
2024/03/21 09:52:16;;;;;;;2.20;2.00;;;16.30;1.00;;;;;;4999436;28;20034;-76
2024/03/21 09:54:43;;;;;;;6.38;2.42;;;16.30;1.00;;;;;;5005820;28;20038;-75
2024/03/21 09:57:12;;;;;;;2.47;2.05;;;16.30;1.00;;;;;;4990726;28;20046;-75
2024/03/21 09:59:39;;;;;;;7.15;2.15;;;16.30;1.00;;;;;;5011457;28;20033;-75
2024/03/21 10:02:12;;;;;;;3.97;2.40;;;16.00;1.00;;;;;;5009755;28;20375;-74
2024/03/21 10:04:43;;;;;;;2.67;2.47;;;16.20;1.00;;;;;;5004568;28;20034;-74
2024/03/21 10:07:17;;;;;;;5.28;2.63;;;16.20;1.00;;;;;;5003824;28;20399;-74
2024/03/21 10:09:54;;;;;;;4.25;2.55;;;16.10;1.00;;;;;;5003367;28;20041;-74
2024/03/21 10:12:22;;;;;;;2.95;2.67;;;16.10;1.00;;;;;;5012631;28;20069;-74
2024/03/21 10:14:51;;;;;;;2.33;1.20;;;16.30;1.00;;;;;;5013380;28;20030;-75
2024/03/21 10:17:17;;;;;;;16.13;3.55;;;16.30;1.00;;;;;;5014822;28;20368;-74
2024/03/21 10:19:44;;;;;;;4.70;3.33;;;16.60;1.00;;;;;;5003245;28;20044;-74
2024/03/21 10:22:17;;;;;;;4.13;2.58;;;16.90;1.00;;;;;;5009824;28;20042;-75
2024/03/21 10:24:43;;;;;;;4.53;3.38;;;16.60;1.00;;;;;;5003667;28;20395;-75
2024/03/21 10:27:14;;;;;;;4.68;2.85;;;16.60;1.00;;;;;;5011174;28;20030;-75
2024/03/21 10:29:47;;;;;;;4.38;4.00;;;16.50;1.00;;;;;;5011380;28;20029;-75
2024/03/21 10:32:18;;;;;;;6.95;4.60;;;16.50;1.00;;;;;;5011772;28;20053;-75
2024/03/21 10:34:49;;;;;;;10.45;4.25;;;16.20;1.00;;;;;;5008280;28;20046;-74
2024/03/21 10:37:20;;;;;;;9.57;5.65;;;16.30;1.00;;;;;;5007964;28;20037;-74
2024/03/21 10:39:47;;;;;;;11.35;4.05;;;16.60;1.00;;;;;;5002362;28;20033;-75
2024/03/21 10:42:32;;;;;;;6.15;2.92;;;16.40;1.00;;;;;;5013454;28;20057;-75
2024/03/21 10:45:04;;;;;;;7.38;4.65;;;16.30;1.00;;;;;;5013478;28;20084;-75
2024/03/21 10:47:31;;;;;;;4.97;4.57;;;16.20;1.00;;;;;;5011092;28;20041;-77
2024/03/21 10:49:58;;;;;;;9.27;5.53;;;16.20;1.00;;;;;;5007005;28;20035;-76
2024/03/21 10:52:24;;;;;;;6.95;4.07;;;16.30;1.00;;;;;;5008755;28;20041;-75
2024/03/21 10:54:52;;;;;;;4.40;2.85;;;16.70;1.00;;;;;;5004341;28;20034;-76
2024/03/21 10:57:19;;;;;;;6.80;4.90;;;16.70;1.00;;;;;;4992826;28;20038;-75
2024/03/21 11:00:06;;;;;;;5.63;4.50;;;16.20;1.00;;;;;;4994082;28;20038;-73
2024/03/21 11:02:32;;;;;;;5.78;4.10;;;16.20;1.00;;;;;;5011643;28;20049;-74
2024/03/21 11:05:12;;;;;;;6.22;3.58;;;16.20;1.00;;;;;;5012449;28;20037;-74
2024/03/21 11:07:39;;;;;;;3.13;2.83;;;16.20;1.00;;;;;;5009373;28;20037;-74
2024/03/21 11:10:07;;;;;;;5.47;2.72;;;16.00;1.00;;;;;;5003256;28;20065;-74
2024/03/21 11:12:34;;;;;;;7.53;3.78;;;16.10;1.00;;;;;;5015712;28;20487;-74
2024/03/21 11:15:01;;;;;;;4.93;3.00;;;16.10;1.00;;;;;;5014644;28;20046;-75
2024/03/21 11:17:27;;;;;;;5.38;4.28;;;16.30;1.00;;;;;;5004706;28;20054;-75
2024/03/21 11:19:53;;;;;;;5.57;3.25;;;16.30;1.00;;;;;;5013225;28;20053;-73
2024/03/21 11:22:20;;;;;;;6.70;3.97;;;16.40;99.90;;;;;;5008481;28;20034;-75
2024/03/21 11:24:47;;;;;;;5.20;3.30;;;16.40;1.00;;;;;;5006043;28;20423;-74
2024/03/21 11:27:17;;;;;;;8.30;3.13;;;16.40;1.00;;;;;;5014537;28;20045;-75
2024/03/21 11:29:43;;;;;;;3.50;2.90;;;16.70;99.90;;;;;;5014147;28;20041;-75
2024/03/21 11:32:11;;;;;;;2.75;2.03;;;16.80;99.90;;;;;;5016023;28;20034;-75
2024/03/21 11:34:38;;;;;;;4.43;3.05;;;16.50;99.90;;;;;;4998422;28;20042;-75
2024/03/21 11:37:11;;;;;;;4.18;2.50;;;16.70;99.90;;;;;;5008655;28;20061;-75
2024/03/21 11:39:39;;;;;;;3.13;2.03;;;16.70;99.90;;;;;;5001814;28;20046;-75
2024/03/21 11:42:13;;;;;;;3.70;2.58;;;16.80;99.90;;;;;;5013277;28;20069;-74
2024/03/21 11:44:44;;;;;;;4.15;3.03;;;16.70;99.90;;;;;;5015815;28;20041;-75
2024/03/21 11:47:15;;;;;;;8.25;2.50;;;16.60;99.90;;;;;;5010628;28;20036;-75
2024/03/21 11:49:52;;;;;;;3.13;2.85;;;16.40;99.90;;;;;;5009868;28;20069;-75
2024/03/21 11:52:19;;;;;;;3.38;2.42;;;16.60;99.90;;;;;;5010636;28;20030;-75
2024/03/21 11:54:45;;;;;;;4.20;1.67;;;16.60;99.90;;;;;;5004361;28;20369;-75
2024/03/21 11:57:13;;;;;;;1.80;1.20;;;16.70;99.90;;;;;;5014032;28;20036;-74
2024/03/21 11:59:41;;;;;;;1.55;1.42;;;16.80;99.90;;;;;;5014466;28;20451;-75
2024/03/21 12:02:14;;;;;;;4.60;2.40;;;16.80;99.90;;;;;;4996051;28;20037;-75
2024/03/21 12:04:41;;;;;;;1.67;1.58;;;16.70;99.90;;;;;;5008408;28;20038;-75
2024/03/21 12:07:12;;;;;;;0.93;0.93;;;16.70;99.90;;;;;;5003729;28;20038;-74
2024/03/21 12:09:38;;;;;;;2.15;1.67;;;16.70;99.90;;;;;;5003244;28;20399;-74
2024/03/21 12:12:08;;;;;;;2.83;2.45;;;16.80;99.90;;;;;;5014904;28;20045;-75
2024/03/21 12:14:34;;;;;;;1.73;1.35;;;16.90;99.90;;;;;;4989328;28;20404;-74
2024/03/21 12:17:01;;;;;;;1.33;0.98;;;16.80;99.90;;;;;;5004918;28;20042;-75
2024/03/21 12:19:27;;;;;;;1.27;1.02;;;16.80;99.90;;;;;;5013924;28;20037;-74
2024/03/21 12:21:54;;;;;;;1.40;1.13;;;17.00;99.90;;;;;;5000467;28;20034;-75
2024/03/21 12:24:20;;;;;;;1.17;1.08;;;17.20;99.90;;;;;;5006691;28;20395;-74
2024/03/21 12:26:46;;;;;;;3.60;0.82;;;17.30;99.90;;;;;;5012144;28;20030;-75
2024/03/21 12:29:12;;;;;;;1.27;1.17;;;16.70;99.90;;;;;;5014431;28;20045;-76
2024/03/21 12:31:39;;;;;;;1.35;1.20;;;16.30;99.90;;;;;;5012731;28;20046;-74
2024/03/21 12:34:05;;;;;;;1.05;0.95;;;16.40;99.90;;;;;;4989016;28;20056;-75
2024/03/21 12:36:32;;;;;;;0.30;0.30;;;16.40;99.90;;;;;;5006091;28;20034;-75
2024/03/21 12:38:59;;;;;;;1.88;1.55;;;16.40;99.90;;;;;;5005194;28;20463;-74
2024/03/21 12:41:25;;;;;;;5.57;1.88;;;16.50;99.90;;;;;;5007524;28;20497;-74
2024/03/21 12:43:52;;;;;;;2.08;1.17;;;16.50;99.90;;;;;;5012927;28;20061;-75
2024/03/21 12:46:18;;;;;;;1.20;1.10;;;16.60;99.90;;;;;;4994701;28;20037;-76
2024/03/21 12:48:45;;;;;;;1.85;0.75;;;16.70;99.90;;;;;;4991533;28;20037;-74
2024/03/21 12:51:12;;;;;;;0.65;0.50;;;16.80;99.90;;;;;;5007859;28;20037;-73
2024/03/21 12:53:39;;;;;;;3.50;1.75;;;17.00;99.90;;;;;;5005575;28;20029;-74
2024/03/21 12:56:05;;;;;;;3.33;1.00;;;17.40;99.90;;;;;;5001098;28;20034;-76
2024/03/21 12:58:31;;;;;;;1.20;0.63;;;17.30;99.90;;;;;;5013096;28;20053;-75
2024/03/21 13:00:57;;;;;;;2.22;0.43;;;17.20;99.90;;;;;;5012718;28;20030;-74
2024/03/21 13:03:24;;;;;;;1.58;0.32;;;17.00;99.90;;;;;;4987911;28;20053;-75
2024/03/21 13:05:50;;;;;;;3.30;0.85;;;17.10;99.90;;;;;;5005620;28;20045;-76